Latest Weather Observations for Kurnell

IDN60801

Issued at 4:06 am EDT Saturday 7 March 2015 (issued every 30 minutes, with the page automatically refreshed every 10 minutes)

About weather observations | Map of weather stations | Latest weather observations for NSW | Other Formats
Station Details ID: 066043 Name: KURNELL AWS Lat: -34.00 Lon: 151.21 Height: 4.0 m
Data from the previous 72 hours. | See also: Recent months for locations in New South Wales
Date/Time
EDT
Temp
°C
App
Temp
°C
Dew
Point
Rel
Hum
%
Delta-T
°C
Wind Press
QNH
hPa
Press
MSL
hPa
Rain
since 9 am
mm
Dir
 
Spd
km/h
Gust
km/h
Spd
kts
Gust
kts
07/04:00am - - - - - SE 15 19 8 10 - - -
07/03:30am - - - - - SE 15 20 8 11 - - -
07/03:00am - - - - - ESE 15 20 8 11 - - -
07/02:30am - - - - - SE 9 15 5 8 - - -
07/02:00am - - - - - ESE 13 17 7 9 - - -
07/01:30am - - - - - SE 13 15 7 8 - - -
07/01:00am - - - - - SE 13 15 7 8 - - -
07/12:30am - - - - - ESE 13 17 7 9 - - -
07/12:00am - - - - - SE 9 11 5 6 - - -
 
Date/Time
EDT
Temp
°C
App
Temp
°C
Dew
Point
Rel
Hum
%
Delta-T
°C
Wind Press
QNH
hPa
Press
MSL
hPa
Rain
since 9 am
mm
Dir
 
Spd
km/h
Gust
km/h
Spd
kts
Gust
kts
06/11:30pm - - - - - SE 9 9 5 5 - - -
06/11:00pm - - - - - SE 9 11 5 6 - - -
06/10:30pm - - - - - SE 13 17 7 9 - - -
06/10:00pm - - - - - SE 15 17 8 9 - - -
06/09:30pm - - - - - SE 13 17 7 9 - - -
06/09:00pm - - - - - SE 11 13 6 7 - - -
06/08:30pm - - - - - E 6 9 3 5 - - -
06/08:00pm - - - - - E 13 15 7 8 - - -
06/07:30pm - - - - - E 15 19 8 10 - - -
06/07:00pm - - - - - ENE 15 19 8 10 - - -
06/06:30pm - - - - - E 17 20 9 11 - - -
06/06:00pm - - - - - E 17 20 9 11 - - -
06/05:30pm - - - - - E 19 24 10 13 - - -
06/05:00pm - - - - - ESE 20 24 11 13 - - -
06/04:30pm - - - - - ESE 19 24 10 13 - - -
06/04:00pm - - - - - ESE 17 22 9 12 - - -
06/03:30pm - - - - - W 24 33 13 18 - - -
06/03:00pm - - - - - W 30 33 16 18 - - -
06/02:30pm - - - - - W 22 30 12 16 - - -
06/02:00pm - - - - - W 30 37 16 20 - - -
06/01:30pm - - - - - WNW 28 33 15 18 - - -
06/01:00pm - - - - - WNW 28 33 15 18 - - -
06/12:30pm - - - - - W 39 52 21 28 - - -
06/12:00pm - - - - - W 37 50 20 27 - - -
06/11:30am - - - - - W 41 50 22 27 - - -
06/11:00am - - - - - WNW 41 50 22 27 - - -
06/10:30am - - - - - W 37 46 20 25 - - -
06/10:00am - - - - - W 37 52 20 28 - - -
06/09:30am - - - - - WNW 32 41 17 22 - - -
06/09:00am - - - - - NW 30 37 16 20 - - -
06/08:30am - - - - - NNW 22 32 12 17 - - -
06/08:00am - - - - - NNW 24 33 13 18 - - -
06/07:30am - - - - - NNW 26 30 14 16 - - -
06/07:00am - - - - - NNW 24 32 13 17 - - -
06/06:30am - - - - - NW 20 26 11 14 - - -
06/06:00am - - - - - NW 30 33 16 18 - - -
06/05:30am - - - - - NNW 17 24 9 13 - - -
06/05:00am - - - - - NNW 17 24 9 13 - - -
06/04:30am - - - - - NNW 20 24 11 13 - - -
06/04:00am - - - - - NNW 17 19 9 10 - - -
06/03:30am - - - - - NW 17 19 9 10 - - -
06/03:00am - - - - - WNW 19 20 10 11 - - -
06/02:30am - - - - - W 13 17 7 9 - - -
06/02:00am - - - - - W 17 20 9 11 - - -
06/01:30am - - - - - W 15 17 8 9 - - -
06/01:00am - - - - - W 15 17 8 9 - - -
06/12:30am - - - - - W 15 17 8 9 - - -
06/12:00am - - - - - W 19 22 10 12 - - -
 
Date/Time
EDT
Temp
°C
App
Temp
°C
Dew
Point
Rel
Hum
%
Delta-T
°C
Wind Press
QNH
hPa
Press
MSL
hPa
Rain
since 9 am
mm
Dir
 
Spd
km/h
Gust
km/h
Spd
kts
Gust
kts
05/11:30pm - - - - - SW 4 11 2 6 - - -
05/11:00pm - - - - - SSW 9 13 5 7 - - -
05/10:30pm - - - - - S 13 19 7 10 - - -
05/10:00pm - - - - - S 13 19 7 10 - - -
05/09:30pm - - - - - S 19 28 10 15 - - -
05/09:00pm - - - - - S 17 26 9 14 - - -
05/08:30pm - - - - - SSE 24 33 13 18 - - -
05/08:00pm - - - - - S 24 32 13 17 - - -
05/07:30pm - - - - - S 26 39 14 21 - - -
05/07:00pm - - - - - S 28 35 15 19 - - -
05/06:30pm - - - - - S 32 48 17 26 - - -
05/06:00pm - - - - - S 33 48 18 26 - - -
05/05:30pm - - - - - S 35 57 19 31 - - -
05/05:01pm - - - - - S 35 54 19 29 - - -
05/05:00pm - - - - - S 37 54 20 29 - - -
05/04:56pm - - - - - S 35 54 19 29 - - -
05/04:30pm - - - - - S 39 56 21 30 - - -
05/04:00pm - - - - - S 37 52 20 28 - - -
05/03:30pm - - - - - S 39 54 21 29 - - -
05/03:00pm - - - - - S 39 50 21 27 - - -
05/02:30pm - - - - - S 39 52 21 28 - - -
05/02:00pm - - - - - S 37 48 20 26 - - -
05/01:44pm - - - - - S 37 56 20 30 - - -
05/01:30pm - - - - - S 39 56 21 30 - - -
05/01:16pm - - - - - S 39 61 21 33 - - -
05/01:02pm - - - - - SSW 35 57 19 31 - - -
05/01:00pm - - - - - SSW 33 52 18 28 - - -
05/12:30pm - - - - - W 33 44 18 24 - - -
05/12:00pm - - - - - W 43 52 23 28 - - -
05/11:30am - - - - - W 43 52 23 28 - - -
05/11:00am - - - - - WSW 39 56 21 30 - - -
05/10:59am - - - - - WSW 39 54 21 29 - - -
05/10:30am - - - - - W 30 35 16 19 - - -
05/10:00am - - - - - W 28 32 15 17 - - -
05/09:30am - - - - - W 30 35 16 19 - - -
05/09:00am - - - - - W 28 33 15 18 - - -
05/08:30am - - - - - WNW 17 22 9 12 - - -
05/08:00am - - - - - WNW 15 17 8 9 - - -
05/07:30am - - - - - W 15 17 8 9 - - -
05/07:00am - - - - - SW 4 11 2 6 - - -
05/06:30am - - - - - NW 13 15 7 8 - - -
05/06:00am - - - - - WNW 9 11 5 6 - - -
05/05:30am - - - - - WNW 11 13 6 7 - - -
05/05:00am - - - - - WNW 13 15 7 8 - - -
05/04:30am - - - - - NW 11 13 6 7 - - -
05/04:00am - - - - - WNW 11 13 6 7 - - -
05/03:30am - - - - - NW 11 13 6 7 - - -
05/03:00am - - - - - WNW 11 11 6 6 - - -
05/02:30am - - - - - NW 9 11 5 6 - - -
05/02:00am - - - - - WNW 11 13 6 7 - - -
05/01:30am - - - - - NNW 7 9 4 5 - - -
05/01:00am - - - - - NNW 9 11 5 6 - - -
05/12:30am - - - - - N 7 9 4 5 - - -
05/12:00am - - - - - CALM 0 0 0 0 - - -
 
Date/Time
EDT
Temp
°C
App
Temp
°C
Dew
Point
Rel
Hum
%
Delta-T
°C
Wind Press
QNH
hPa
Press
MSL
hPa
Rain
since 9 am
mm
Dir
 
Spd
km/h
Gust
km/h
Spd
kts
Gust
kts
04/11:30pm - - - - - W 9 13 5 7 - - -
04/11:00pm - - - - - NE 7 9 4 5 - - -
04/10:30pm - - - - - NNE 9 11 5 6 - - -
04/10:00pm - - - - - NNW 9 11 5 6 - - -
04/09:30pm - - - - - NNE 13 15 7 8 - - -
04/09:00pm - - - - - NE 13 17 7 9 - - -
04/08:30pm - - - - - NE 15 17 8 9 - - -
04/08:00pm - - - - - NE 13 15 7 8 - - -
04/07:30pm - - - - - NE 15 19 8 10 - - -
04/07:00pm - - - - - ENE 19 22 10 12 - - -
04/06:30pm - - - - - ENE 24 28 13 15 - - -
04/06:00pm - - - - - ENE 20 26 11 14 - - -
04/05:30pm - - - - - E 20 26 11 14 - - -
04/05:00pm - - - - - E 20 28 11 15 - - -
04/04:30pm - - - - - E 20 24 11 13 - - -
04/04:00pm - - - - - E 19 26 10 14 - - -
04/03:30pm - - - - - E 22 26 12 14 - - -
04/03:00pm - - - - - ESE 15 17 8 9 - - -
04/02:30pm - - - - - ESE 13 17 7 9 - - -
04/02:00pm - - - - - SE 13 15 7 8 - - -
04/01:30pm - - - - - SE 13 17 7 9 - - -
04/01:00pm - - - - - SE 13 17 7 9 - - -
04/12:30pm - - - - - SSE 11 17 6 9 - - -
04/12:00pm - - - - - S 15 17 8 9 - - -
04/11:30am - - - - - S 19 26 10 14 - - -
04/11:00am - - - - - SSW 22 30 12 16 - - -
04/10:30am - - - - - SSW 28 35 15 19 - - -
04/10:00am - - - - - SSW 26 32 14 17 - - -
04/09:30am - - - - - SSW 24 32 13 17 - - -
04/09:00am - - - - - SSW 20 30 11 16 - - -
04/08:30am - - - - - SSW 19 24 10 13 - - -
04/08:00am - - - - - S 15 19 8 10 - - -
04/07:30am - - - - - SSW 19 24 10 13 - - -
04/07:00am - - - - - SSW 19 26 10 14 - - -
04/06:30am - - - - - SSW 20 26 11 14 - - -
04/06:00am - - - - - SSW 22 28 12 15 - - -
04/05:30am - - - - - SSW 24 30 13 16 - - -
04/05:00am - - - - - SSW 22 32 12 17 - - -
04/04:30am - - - - - SSW 20 30 11 16 - - -

Other Formats:

Comma delimited format used in spreadsheet applications
http://www.bom.gov.au/fwo/IDN60801/IDN60801.95756.axf

JavaScript Object Notation format (JSON) in row-major order
http://www.bom.gov.au/fwo/IDN60801/IDN60801.95756.json